sensor_id;sensor_type;location;lat;lon;timestamp;temperature;humidity
2867;DHT22;1441;48.886;8.728;2023-04-10T00:01:46;8.20;78.60
2867;DHT22;1441;48.886;8.728;2023-04-10T00:04:11;8.20;78.60
2867;DHT22;1441;48.886;8.728;2023-04-10T00:06:38;8.20;78.70
2867;DHT22;1441;48.886;8.728;2023-04-10T00:09:05;8.10;78.70
2867;DHT22;1441;48.886;8.728;2023-04-10T00:11:30;8.10;78.90
2867;DHT22;1441;48.886;8.728;2023-04-10T00:13:56;8.10;79.00
2867;DHT22;1441;48.886;8.728;2023-04-10T00:16:21;8.00;79.00
2867;DHT22;1441;48.886;8.728;2023-04-10T00:18:47;8.00;79.10
2867;DHT22;1441;48.886;8.728;2023-04-10T00:21:13;8.00;79.20
2867;DHT22;1441;48.886;8.728;2023-04-10T00:23:38;8.00;79.30
2867;DHT22;1441;48.886;8.728;2023-04-10T00:26:04;8.00;79.20
2867;DHT22;1441;48.886;8.728;2023-04-10T00:28:30;8.00;79.20
2867;DHT22;1441;48.886;8.728;2023-04-10T00:30:55;7.90;79.20
2867;DHT22;1441;48.886;8.728;2023-04-10T00:33:21;7.90;79.40
2867;DHT22;1441;48.886;8.728;2023-04-10T00:35:46;7.90;79.30
2867;DHT22;1441;48.886;8.728;2023-04-10T00:38:12;7.90;79.20
2867;DHT22;1441;48.886;8.728;2023-04-10T00:40:37;7.90;79.40
2867;DHT22;1441;48.886;8.728;2023-04-10T00:43:03;7.90;79.30
2867;DHT22;1441;48.886;8.728;2023-04-10T00:45:29;7.90;79.30
2867;DHT22;1441;48.886;8.728;2023-04-10T00:47:55;7.80;79.40
2867;DHT22;1441;48.886;8.728;2023-04-10T00:50:21;7.80;79.60
2867;DHT22;1441;48.886;8.728;2023-04-10T00:52:50;7.80;79.50
2867;DHT22;1441;48.886;8.728;2023-04-10T00:55:16;7.80;79.50
2867;DHT22;1441;48.886;8.728;2023-04-10T00:57:44;7.70;79.60
2867;DHT22;1441;48.886;8.728;2023-04-10T01:00:14;7.70;79.70
2867;DHT22;1441;48.886;8.728;2023-04-10T01:02:40;7.60;80.00
2867;DHT22;1441;48.886;8.728;2023-04-10T01:05:07;7.60;80.20
2867;DHT22;1441;48.886;8.728;2023-04-10T01:11:09;7.50;80.40
2867;DHT22;1441;48.886;8.728;2023-04-10T01:15:52;7.40;80.50
2867;DHT22;1441;48.886;8.728;2023-04-10T01:18:25;7.40;80.50
2867;DHT22;1441;48.886;8.728;2023-04-10T01:20:55;7.40;80.40
2867;DHT22;1441;48.886;8.728;2023-04-10T01:23:40;7.40;80.50
2867;DHT22;1441;48.886;8.728;2023-04-10T01:26:10;7.40;80.50
2867;DHT22;1441;48.886;8.728;2023-04-10T01:31:43;7.40;80.70
2867;DHT22;1441;48.886;8.728;2023-04-10T01:34:24;7.40;80.50
2867;DHT22;1441;48.886;8.728;2023-04-10T01:36:56;7.40;80.30
2867;DHT22;1441;48.886;8.728;2023-04-10T01:39:24;7.40;80.00
2867;DHT22;1441;48.886;8.728;2023-04-10T01:41:51;7.30;80.10
2867;DHT22;1441;48.886;8.728;2023-04-10T01:44:22;7.30;80.20
2867;DHT22;1441;48.886;8.728;2023-04-10T01:46:51;7.30;80.40
2867;DHT22;1441;48.886;8.728;2023-04-10T01:49:17;7.30;80.40
2867;DHT22;1441;48.886;8.728;2023-04-10T01:51:44;7.30;80.20
2867;DHT22;1441;48.886;8.728;2023-04-10T01:54:11;7.30;80.30
2867;DHT22;1441;48.886;8.728;2023-04-10T01:56:37;7.30;80.20
2867;DHT22;1441;48.886;8.728;2023-04-10T01:59:03;7.20;80.10
2867;DHT22;1441;48.886;8.728;2023-04-10T02:01:30;7.20;80.10
2867;DHT22;1441;48.886;8.728;2023-04-10T02:03:56;7.20;80.20
2867;DHT22;1441;48.886;8.728;2023-04-10T02:06:48;7.20;80.20
2867;DHT22;1441;48.886;8.728;2023-04-10T02:09:27;7.20;80.20
2867;DHT22;1441;48.886;8.728;2023-04-10T02:12:05;7.10;80.40
2867;DHT22;1441;48.886;8.728;2023-04-10T02:14:32;7.00;81.00
2867;DHT22;1441;48.886;8.728;2023-04-10T02:17:00;7.00;80.90
2867;DHT22;1441;48.886;8.728;2023-04-10T02:19:27;7.10;80.70
2867;DHT22;1441;48.886;8.728;2023-04-10T02:21:56;7.10;80.60
2867;DHT22;1441;48.886;8.728;2023-04-10T02:24:23;7.10;80.60
2867;DHT22;1441;48.886;8.728;2023-04-10T02:26:51;7.10;80.40
2867;DHT22;1441;48.886;8.728;2023-04-10T02:29:17;7.10;80.40
2867;DHT22;1441;48.886;8.728;2023-04-10T02:31:44;7.10;80.40
2867;DHT22;1441;48.886;8.728;2023-04-10T02:34:10;7.00;80.60
2867;DHT22;1441;48.886;8.728;2023-04-10T02:36:37;7.00;80.70
2867;DHT22;1441;48.886;8.728;2023-04-10T02:39:03;7.00;80.80
2867;DHT22;1441;48.886;8.728;2023-04-10T02:41:28;6.90;81.00
2867;DHT22;1441;48.886;8.728;2023-04-10T02:43:54;6.90;81.10
2867;DHT22;1441;48.886;8.728;2023-04-10T02:46:20;6.80;81.10
2867;DHT22;1441;48.886;8.728;2023-04-10T02:48:46;6.80;81.20
2867;DHT22;1441;48.886;8.728;2023-04-10T02:51:12;6.90;81.10
2867;DHT22;1441;48.886;8.728;2023-04-10T02:53:38;6.80;81.20
2867;DHT22;1441;48.886;8.728;2023-04-10T02:56:04;6.80;81.10
2867;DHT22;1441;48.886;8.728;2023-04-10T02:58:31;6.80;81.10
2867;DHT22;1441;48.886;8.728;2023-04-10T03:00:57;6.80;81.00
2867;DHT22;1441;48.886;8.728;2023-04-10T03:03:22;6.90;80.90
2867;DHT22;1441;48.886;8.728;2023-04-10T03:05:48;6.90;80.90
2867;DHT22;1441;48.886;8.728;2023-04-10T03:08:14;6.80;81.10
2867;DHT22;1441;48.886;8.728;2023-04-10T03:10:43;6.80;81.10
2867;DHT22;1441;48.886;8.728;2023-04-10T03:13:09;6.80;81.10
2867;DHT22;1441;48.886;8.728;2023-04-10T03:15:35;6.70;81.20
2867;DHT22;1441;48.886;8.728;2023-04-10T03:18:00;6.80;81.00
2867;DHT22;1441;48.886;8.728;2023-04-10T03:20:26;6.70;81.40
2867;DHT22;1441;48.886;8.728;2023-04-10T03:22:52;6.70;81.40
2867;DHT22;1441;48.886;8.728;2023-04-10T03:25:17;6.70;81.70
2867;DHT22;1441;48.886;8.728;2023-04-10T03:27:43;6.80;81.00
2867;DHT22;1441;48.886;8.728;2023-04-10T03:30:08;6.80;81.00
2867;DHT22;1441;48.886;8.728;2023-04-10T03:32:35;6.80;81.00
2867;DHT22;1441;48.886;8.728;2023-04-10T03:35:00;6.70;81.10
2867;DHT22;1441;48.886;8.728;2023-04-10T03:37:26;6.70;80.90
2867;DHT22;1441;48.886;8.728;2023-04-10T03:39:52;6.80;80.90
2867;DHT22;1441;48.886;8.728;2023-04-10T03:42:17;6.70;80.80
2867;DHT22;1441;48.886;8.728;2023-04-10T03:44:43;6.80;80.60
2867;DHT22;1441;48.886;8.728;2023-04-10T03:47:08;6.80;80.50
2867;DHT22;1441;48.886;8.728;2023-04-10T03:49:34;6.80;80.60
2867;DHT22;1441;48.886;8.728;2023-04-10T03:52:00;6.70;80.60
2867;DHT22;1441;48.886;8.728;2023-04-10T03:54:25;6.60;80.70
2867;DHT22;1441;48.886;8.728;2023-04-10T03:56:51;6.60;81.00
2867;DHT22;1441;48.886;8.728;2023-04-10T03:59:16;6.50;81.30
2867;DHT22;1441;48.886;8.728;2023-04-10T04:01:42;6.50;81.20
2867;DHT22;1441;48.886;8.728;2023-04-10T04:04:07;6.50;81.30
2867;DHT22;1441;48.886;8.728;2023-04-10T04:06:33;6.50;81.20
2867;DHT22;1441;48.886;8.728;2023-04-10T04:08:59;6.50;81.20
2867;DHT22;1441;48.886;8.728;2023-04-10T04:11:24;6.50;81.20
2867;DHT22;1441;48.886;8.728;2023-04-10T04:13:50;6.50;81.20
2867;DHT22;1441;48.886;8.728;2023-04-10T04:16:15;6.50;81.10
2867;DHT22;1441;48.886;8.728;2023-04-10T04:18:41;6.50;81.20
2867;DHT22;1441;48.886;8.728;2023-04-10T04:21:06;6.50;81.20
2867;DHT22;1441;48.886;8.728;2023-04-10T04:23:33;6.50;81.10
2867;DHT22;1441;48.886;8.728;2023-04-10T04:25:58;6.50;81.10
2867;DHT22;1441;48.886;8.728;2023-04-10T04:28:24;6.50;81.10
2867;DHT22;1441;48.886;8.728;2023-04-10T04:30:49;6.50;81.10
2867;DHT22;1441;48.886;8.728;2023-04-10T04:33:15;6.40;81.20
2867;DHT22;1441;48.886;8.728;2023-04-10T04:35:41;6.40;81.40
2867;DHT22;1441;48.886;8.728;2023-04-10T04:38:06;6.30;81.60
2867;DHT22;1441;48.886;8.728;2023-04-10T04:40:32;6.30;81.70
2867;DHT22;1441;48.886;8.728;2023-04-10T04:42:57;6.30;81.80
2867;DHT22;1441;48.886;8.728;2023-04-10T04:45:23;6.30;81.80
2867;DHT22;1441;48.886;8.728;2023-04-10T04:47:49;6.30;81.90
2867;DHT22;1441;48.886;8.728;2023-04-10T04:50:14;6.30;81.70
2867;DHT22;1441;48.886;8.728;2023-04-10T04:52:40;6.30;81.70
2867;DHT22;1441;48.886;8.728;2023-04-10T04:55:06;6.30;81.60
2867;DHT22;1441;48.886;8.728;2023-04-10T04:57:32;6.30;81.60
2867;DHT22;1441;48.886;8.728;2023-04-10T04:59:58;6.30;81.80
2867;DHT22;1441;48.886;8.728;2023-04-10T05:02:25;6.30;81.70
2867;DHT22;1441;48.886;8.728;2023-04-10T05:04:50;6.30;81.70
2867;DHT22;1441;48.886;8.728;2023-04-10T05:07:16;6.30;81.60
2867;DHT22;1441;48.886;8.728;2023-04-10T05:09:41;6.20;81.80
2867;DHT22;1441;48.886;8.728;2023-04-10T05:12:07;6.20;82.00
2867;DHT22;1441;48.886;8.728;2023-04-10T05:14:32;6.20;82.00
2867;DHT22;1441;48.886;8.728;2023-04-10T05:16:58;6.30;82.00
2867;DHT22;1441;48.886;8.728;2023-04-10T05:19:23;6.30;81.90
2867;DHT22;1441;48.886;8.728;2023-04-10T05:21:49;6.30;82.10
2867;DHT22;1441;48.886;8.728;2023-04-10T05:24:15;6.30;82.00
2867;DHT22;1441;48.886;8.728;2023-04-10T05:26:41;6.30;81.90
2867;DHT22;1441;48.886;8.728;2023-04-10T05:29:07;6.30;81.80
2867;DHT22;1441;48.886;8.728;2023-04-10T05:31:32;6.30;81.50
2867;DHT22;1441;48.886;8.728;2023-04-10T05:33:58;6.40;81.40
2867;DHT22;1441;48.886;8.728;2023-04-10T05:36:23;6.40;81.20
2867;DHT22;1441;48.886;8.728;2023-04-10T05:38:49;6.50;81.00
2867;DHT22;1441;48.886;8.728;2023-04-10T05:41:15;6.60;80.50
2867;DHT22;1441;48.886;8.728;2023-04-10T05:43:41;6.80;80.00
2867;DHT22;1441;48.886;8.728;2023-04-10T05:46:06;6.90;79.50
2867;DHT22;1441;48.886;8.728;2023-04-10T05:48:32;6.90;79.10
2867;DHT22;1441;48.886;8.728;2023-04-10T05:50:57;6.90;79.00
2867;DHT22;1441;48.886;8.728;2023-04-10T05:53:27;6.90;79.10
2867;DHT22;1441;48.886;8.728;2023-04-10T05:55:56;7.00;78.60
2867;DHT22;1441;48.886;8.728;2023-04-10T05:58:21;7.00;78.40
2867;DHT22;1441;48.886;8.728;2023-04-10T06:00:47;7.00;78.50
2867;DHT22;1441;48.886;8.728;2023-04-10T06:03:12;7.20;78.10
2867;DHT22;1441;48.886;8.728;2023-04-10T06:05:38;7.30;77.90
2867;DHT22;1441;48.886;8.728;2023-04-10T06:08:05;7.40;77.20
2867;DHT22;1441;48.886;8.728;2023-04-10T06:10:31;7.40;77.30
2867;DHT22;1441;48.886;8.728;2023-04-10T06:12:57;7.50;77.10
2867;DHT22;1441;48.886;8.728;2023-04-10T06:15:22;7.60;76.70
2867;DHT22;1441;48.886;8.728;2023-04-10T06:17:48;7.70;76.30
2867;DHT22;1441;48.886;8.728;2023-04-10T06:20:14;7.90;76.00
2867;DHT22;1441;48.886;8.728;2023-04-10T06:22:39;8.10;75.30
2867;DHT22;1441;48.886;8.728;2023-04-10T06:25:05;8.40;74.60
2867;DHT22;1441;48.886;8.728;2023-04-10T06:27:33;8.80;73.20
2867;DHT22;1441;48.886;8.728;2023-04-10T06:30:02;9.40;71.50
2867;DHT22;1441;48.886;8.728;2023-04-10T06:32:27;10.40;68.90
2867;DHT22;1441;48.886;8.728;2023-04-10T06:34:53;11.70;65.80
2867;DHT22;1441;48.886;8.728;2023-04-10T06:37:19;12.60;63.20
2867;DHT22;1441;48.886;8.728;2023-04-10T06:39:44;14.20;60.10
2867;DHT22;1441;48.886;8.728;2023-04-10T06:42:10;15.50;56.70
2867;DHT22;1441;48.886;8.728;2023-04-10T06:44:35;16.50;54.60
2867;DHT22;1441;48.886;8.728;2023-04-10T06:47:01;17.60;52.70
2867;DHT22;1441;48.886;8.728;2023-04-10T06:49:27;18.20;50.40
2867;DHT22;1441;48.886;8.728;2023-04-10T06:51:52;18.60;49.70
2867;DHT22;1441;48.886;8.728;2023-04-10T06:54:18;19.90;47.80
2867;DHT22;1441;48.886;8.728;2023-04-10T06:56:43;20.50;46.60
2867;DHT22;1441;48.886;8.728;2023-04-10T06:59:09;21.40;45.00
2867;DHT22;1441;48.886;8.728;2023-04-10T07:01:35;21.70;44.50
2867;DHT22;1441;48.886;8.728;2023-04-10T07:04:01;21.90;44.20
2867;DHT22;1441;48.886;8.728;2023-04-10T07:06:26;22.10;42.30
2867;DHT22;1441;48.886;8.728;2023-04-10T07:08:52;21.70;43.30
2867;DHT22;1441;48.886;8.728;2023-04-10T07:11:18;22.60;42.90
2867;DHT22;1441;48.886;8.728;2023-04-10T07:13:43;22.10;42.10
2867;DHT22;1441;48.886;8.728;2023-04-10T07:16:09;20.90;44.30
2867;DHT22;1441;48.886;8.728;2023-04-10T07:18:35;22.30;42.70
2867;DHT22;1441;48.886;8.728;2023-04-10T07:21:10;23.10;41.10
2867;DHT22;1441;48.886;8.728;2023-04-10T07:23:38;23.70;40.70
2867;DHT22;1441;48.886;8.728;2023-04-10T07:26:05;23.50;40.10
2867;DHT22;1441;48.886;8.728;2023-04-10T07:28:31;23.70;40.40
2867;DHT22;1441;48.886;8.728;2023-04-10T07:30:57;23.30;39.80
2867;DHT22;1441;48.886;8.728;2023-04-10T07:33:23;22.90;40.70
2867;DHT22;1441;48.886;8.728;2023-04-10T07:35:48;23.80;40.00
2867;DHT22;1441;48.886;8.728;2023-04-10T07:38:14;24.10;39.10
2867;DHT22;1441;48.886;8.728;2023-04-10T07:40:40;24.30;38.80
2867;DHT22;1441;48.886;8.728;2023-04-10T07:43:05;23.80;38.80
2867;DHT22;1441;48.886;8.728;2023-04-10T07:45:31;24.30;38.60
2867;DHT22;1441;48.886;8.728;2023-04-10T07:47:56;22.60;39.20
2867;DHT22;1441;48.886;8.728;2023-04-10T07:50:23;21.80;41.60
2867;DHT22;1441;48.886;8.728;2023-04-10T07:52:49;23.10;39.50
2867;DHT22;1441;48.886;8.728;2023-04-10T07:55:14;22.80;39.60
2867;DHT22;1441;48.886;8.728;2023-04-10T07:57:40;23.70;39.10
2867;DHT22;1441;48.886;8.728;2023-04-10T08:00:06;22.70;39.90
2867;DHT22;1441;48.886;8.728;2023-04-10T08:02:32;23.70;37.90
2867;DHT22;1441;48.886;8.728;2023-04-10T08:04:57;22.40;39.70
2867;DHT22;1441;48.886;8.728;2023-04-10T08:07:23;21.70;40.70
2867;DHT22;1441;48.886;8.728;2023-04-10T08:09:49;21.40;41.30
2867;DHT22;1441;48.886;8.728;2023-04-10T08:12:14;20.70;43.20
2867;DHT22;1441;48.886;8.728;2023-04-10T08:14:40;21.10;42.50
2867;DHT22;1441;48.886;8.728;2023-04-10T08:17:06;21.00;43.00
2867;DHT22;1441;48.886;8.728;2023-04-10T08:19:31;22.40;40.70
2867;DHT22;1441;48.886;8.728;2023-04-10T08:21:57;23.20;40.00
2867;DHT22;1441;48.886;8.728;2023-04-10T08:24:22;23.40;39.90
2867;DHT22;1441;48.886;8.728;2023-04-10T08:26:48;24.00;39.40
2867;DHT22;1441;48.886;8.728;2023-04-10T08:29:14;24.40;38.90
2867;DHT22;1441;48.886;8.728;2023-04-10T08:31:40;24.40;38.60
2867;DHT22;1441;48.886;8.728;2023-04-10T08:34:05;25.10;37.80
2867;DHT22;1441;48.886;8.728;2023-04-10T08:36:31;25.00;38.40
2867;DHT22;1441;48.886;8.728;2023-04-10T08:38:56;23.00;39.20
2867;DHT22;1441;48.886;8.728;2023-04-10T08:41:22;22.10;41.70
2867;DHT22;1441;48.886;8.728;2023-04-10T08:43:48;22.40;40.90
2867;DHT22;1441;48.886;8.728;2023-04-10T08:46:14;23.10;40.40
2867;DHT22;1441;48.886;8.728;2023-04-10T08:51:19;22.90;40.80
2867;DHT22;1441;48.886;8.728;2023-04-10T08:53:49;23.00;40.90
2867;DHT22;1441;48.886;8.728;2023-04-10T08:56:15;24.30;39.80
2867;DHT22;1441;48.886;8.728;2023-04-10T08:58:42;24.10;40.00
2867;DHT22;1441;48.886;8.728;2023-04-10T09:01:09;24.70;38.70
2867;DHT22;1441;48.886;8.728;2023-04-10T09:03:36;24.70;39.00
2867;DHT22;1441;48.886;8.728;2023-04-10T09:06:02;23.60;39.80
2867;DHT22;1441;48.886;8.728;2023-04-10T09:08:29;24.70;38.60
2867;DHT22;1441;48.886;8.728;2023-04-10T09:10:54;24.40;40.00
2867;DHT22;1441;48.886;8.728;2023-04-10T09:13:40;24.20;39.00
2867;DHT22;1441;48.886;8.728;2023-04-10T09:16:07;23.30;38.90
2867;DHT22;1441;48.886;8.728;2023-04-10T09:18:44;22.90;40.60
2867;DHT22;1441;48.886;8.728;2023-04-10T09:21:13;24.20;38.80
2867;DHT22;1441;48.886;8.728;2023-04-10T09:23:41;23.70;38.30
2867;DHT22;1441;48.886;8.728;2023-04-10T09:26:30;23.30;39.70
2867;DHT22;1441;48.886;8.728;2023-04-10T09:31:35;22.90;38.40
2867;DHT22;1441;48.886;8.728;2023-04-10T09:34:20;22.80;39.30
2867;DHT22;1441;48.886;8.728;2023-04-10T09:36:59;22.30;39.60
2867;DHT22;1441;48.886;8.728;2023-04-10T09:39:38;20.30;40.50
2867;DHT22;1441;48.886;8.728;2023-04-10T09:42:07;20.20;41.20
2867;DHT22;1441;48.886;8.728;2023-04-10T09:44:35;20.30;41.50
2867;DHT22;1441;48.886;8.728;2023-04-10T09:49:47;20.80;42.00
2867;DHT22;1441;48.886;8.728;2023-04-10T09:52:23;20.70;41.20
2867;DHT22;1441;48.886;8.728;2023-04-10T09:54:54;20.60;41.10
2867;DHT22;1441;48.886;8.728;2023-04-10T09:57:21;19.90;40.90
2867;DHT22;1441;48.886;8.728;2023-04-10T10:00:13;19.80;41.80
2867;DHT22;1441;48.886;8.728;2023-04-10T10:02:39;19.50;42.30
2867;DHT22;1441;48.886;8.728;2023-04-10T10:05:06;19.50;42.50
2867;DHT22;1441;48.886;8.728;2023-04-10T10:07:32;19.90;42.50
2867;DHT22;1441;48.886;8.728;2023-04-10T10:09:58;20.20;41.50
2867;DHT22;1441;48.886;8.728;2023-04-10T10:12:39;19.80;41.70
2867;DHT22;1441;48.886;8.728;2023-04-10T10:17:39;20.30;41.80
2867;DHT22;1441;48.886;8.728;2023-04-10T10:20:08;20.00;43.40
2867;DHT22;1441;48.886;8.728;2023-04-10T10:22:36;19.50;42.10
2867;DHT22;1441;48.886;8.728;2023-04-10T10:25:02;19.20;43.00
2867;DHT22;1441;48.886;8.728;2023-04-10T10:27:30;19.20;43.20
2867;DHT22;1441;48.886;8.728;2023-04-10T10:29:59;19.30;42.80
2867;DHT22;1441;48.886;8.728;2023-04-10T10:32:26;18.80;42.50
2867;DHT22;1441;48.886;8.728;2023-04-10T10:34:52;18.80;42.70
2867;DHT22;1441;48.886;8.728;2023-04-10T10:37:22;18.70;43.20
2867;DHT22;1441;48.886;8.728;2023-04-10T10:45:33;19.00;43.80
2867;DHT22;1441;48.886;8.728;2023-04-10T10:48:01;19.30;43.80
2867;DHT22;1441;48.886;8.728;2023-04-10T10:50:58;19.50;42.70
2867;DHT22;1441;48.886;8.728;2023-04-10T10:53:38;19.90;42.60
2867;DHT22;1441;48.886;8.728;2023-04-10T10:58:49;19.80;41.70
2867;DHT22;1441;48.886;8.728;2023-04-10T11:01:16;19.90;43.10
2867;DHT22;1441;48.886;8.728;2023-04-10T11:03:42;20.00;42.60
2867;DHT22;1441;48.886;8.728;2023-04-10T11:06:18;20.00;41.50
2867;DHT22;1441;48.886;8.728;2023-04-10T11:08:51;19.70;41.40
2867;DHT22;1441;48.886;8.728;2023-04-10T11:11:18;19.30;41.90
2867;DHT22;1441;48.886;8.728;2023-04-10T11:16:14;18.90;41.90
2867;DHT22;1441;48.886;8.728;2023-04-10T11:21:19;19.70;41.30
2867;DHT22;1441;48.886;8.728;2023-04-10T11:28:58;20.60;41.80
2867;DHT22;1441;48.886;8.728;2023-04-10T11:31:23;20.60;41.50
2867;DHT22;1441;48.886;8.728;2023-04-10T11:36:23;20.80;41.10
2867;DHT22;1441;48.886;8.728;2023-04-10T11:39:06;20.90;40.40
2867;DHT22;1441;48.886;8.728;2023-04-10T11:41:40;21.00;39.40
2867;DHT22;1441;48.886;8.728;2023-04-10T11:44:10;20.80;39.40
2867;DHT22;1441;48.886;8.728;2023-04-10T11:46:37;20.60;39.10
2867;DHT22;1441;48.886;8.728;2023-04-10T11:49:05;20.60;39.70
2867;DHT22;1441;48.886;8.728;2023-04-10T11:51:32;20.30;37.20
2867;DHT22;1441;48.886;8.728;2023-04-10T11:56:39;20.20;41.00
2867;DHT22;1441;48.886;8.728;2023-04-10T11:59:05;20.00;39.90
2867;DHT22;1441;48.886;8.728;2023-04-10T12:01:50;20.00;40.40
2867;DHT22;1441;48.886;8.728;2023-04-10T12:04:19;20.30;42.90
2867;DHT22;1441;48.886;8.728;2023-04-10T12:06:51;20.60;39.90
2867;DHT22;1441;48.886;8.728;2023-04-10T12:09:19;20.50;40.30
2867;DHT22;1441;48.886;8.728;2023-04-10T12:12:04;20.30;37.70
2867;DHT22;1441;48.886;8.728;2023-04-10T12:16:57;20.30;38.40
2867;DHT22;1441;48.886;8.728;2023-04-10T12:19:23;20.40;38.20
2867;DHT22;1441;48.886;8.728;2023-04-10T12:21:49;20.70;38.30
2867;DHT22;1441;48.886;8.728;2023-04-10T12:24:44;20.90;39.40
2867;DHT22;1441;48.886;8.728;2023-04-10T12:27:22;20.80;38.10
2867;DHT22;1441;48.886;8.728;2023-04-10T12:29:49;21.00;38.90
2867;DHT22;1441;48.886;8.728;2023-04-10T12:32:16;20.60;38.20
2867;DHT22;1441;48.886;8.728;2023-04-10T12:34:48;20.60;39.20
2867;DHT22;1441;48.886;8.728;2023-04-10T12:37:14;20.70;41.30
2867;DHT22;1441;48.886;8.728;2023-04-10T12:39:39;20.50;39.20
2867;DHT22;1441;48.886;8.728;2023-04-10T12:42:18;20.10;38.50
2867;DHT22;1441;48.886;8.728;2023-04-10T12:44:51;19.90;38.80
2867;DHT22;1441;48.886;8.728;2023-04-10T12:47:17;19.90;40.20
2867;DHT22;1441;48.886;8.728;2023-04-10T12:52:29;20.20;41.40
2867;DHT22;1441;48.886;8.728;2023-04-10T12:55:40;20.50;40.00
2867;DHT22;1441;48.886;8.728;2023-04-10T12:58:14;20.80;41.00
2867;DHT22;1441;48.886;8.728;2023-04-10T13:00:41;21.00;40.00
2867;DHT22;1441;48.886;8.728;2023-04-10T13:03:07;20.70;39.90
2867;DHT22;1441;48.886;8.728;2023-04-10T13:05:32;20.80;41.70
2867;DHT22;1441;48.886;8.728;2023-04-10T13:07:58;21.10;43.30
2867;DHT22;1441;48.886;8.728;2023-04-10T13:10:24;21.30;43.50
2867;DHT22;1441;48.886;8.728;2023-04-10T13:12:49;21.70;40.80
2867;DHT22;1441;48.886;8.728;2023-04-10T13:15:15;21.80;41.80
2867;DHT22;1441;48.886;8.728;2023-04-10T13:17:41;21.50;39.50
2867;DHT22;1441;48.886;8.728;2023-04-10T13:20:08;21.40;40.50
2867;DHT22;1441;48.886;8.728;2023-04-10T13:22:34;21.00;39.40
2867;DHT22;1441;48.886;8.728;2023-04-10T13:25:00;21.00;40.80
2867;DHT22;1441;48.886;8.728;2023-04-10T13:27:27;20.80;42.20
2867;DHT22;1441;48.886;8.728;2023-04-10T13:29:54;20.60;40.20
2867;DHT22;1441;48.886;8.728;2023-04-10T13:32:20;20.60;40.40
2867;DHT22;1441;48.886;8.728;2023-04-10T13:34:45;20.30;42.10
2867;DHT22;1441;48.886;8.728;2023-04-10T13:37:11;20.40;42.80
2867;DHT22;1441;48.886;8.728;2023-04-10T13:39:37;20.60;41.60
2867;DHT22;1441;48.886;8.728;2023-04-10T13:42:03;20.60;42.00
2867;DHT22;1441;48.886;8.728;2023-04-10T13:44:29;20.80;40.50
2867;DHT22;1441;48.886;8.728;2023-04-10T13:46:54;20.90;40.00
2867;DHT22;1441;48.886;8.728;2023-04-10T13:49:21;21.00;39.70
2867;DHT22;1441;48.886;8.728;2023-04-10T13:51:47;21.00;40.00
2867;DHT22;1441;48.886;8.728;2023-04-10T13:54:13;21.00;39.70
2867;DHT22;1441;48.886;8.728;2023-04-10T13:56:38;21.00;39.70
2867;DHT22;1441;48.886;8.728;2023-04-10T13:59:05;21.10;40.30
2867;DHT22;1441;48.886;8.728;2023-04-10T14:01:31;21.10;39.50
2867;DHT22;1441;48.886;8.728;2023-04-10T14:03:56;21.20;42.00
2867;DHT22;1441;48.886;8.728;2023-04-10T14:06:22;21.20;42.10
2867;DHT22;1441;48.886;8.728;2023-04-10T14:08:47;21.20;40.20
2867;DHT22;1441;48.886;8.728;2023-04-10T14:11:13;20.60;40.80
2867;DHT22;1441;48.886;8.728;2023-04-10T14:13:38;20.40;41.70
2867;DHT22;1441;48.886;8.728;2023-04-10T14:16:04;20.60;41.60
2867;DHT22;1441;48.886;8.728;2023-04-10T14:18:30;20.60;41.00
2867;DHT22;1441;48.886;8.728;2023-04-10T14:20:56;20.40;40.50
2867;DHT22;1441;48.886;8.728;2023-04-10T14:23:21;20.40;40.40
2867;DHT22;1441;48.886;8.728;2023-04-10T14:25:48;20.50;40.50
2867;DHT22;1441;48.886;8.728;2023-04-10T14:28:14;20.50;42.90
2867;DHT22;1441;48.886;8.728;2023-04-10T14:30:44;20.70;42.80
2867;DHT22;1441;48.886;8.728;2023-04-10T14:33:10;20.90;42.60
2867;DHT22;1441;48.886;8.728;2023-04-10T14:35:36;20.90;40.50
2867;DHT22;1441;48.886;8.728;2023-04-10T14:38:02;20.90;40.30
2867;DHT22;1441;48.886;8.728;2023-04-10T14:40:27;21.10;41.80
2867;DHT22;1441;48.886;8.728;2023-04-10T14:42:53;21.30;41.00
2867;DHT22;1441;48.886;8.728;2023-04-10T14:45:19;21.40;39.90
2867;DHT22;1441;48.886;8.728;2023-04-10T14:47:44;21.20;40.20
2867;DHT22;1441;48.886;8.728;2023-04-10T14:50:11;20.70;39.70
2867;DHT22;1441;48.886;8.728;2023-04-10T14:52:37;20.50;39.50
2867;DHT22;1441;48.886;8.728;2023-04-10T14:55:03;20.60;39.70
2867;DHT22;1441;48.886;8.728;2023-04-10T14:57:28;20.50;40.20
2867;DHT22;1441;48.886;8.728;2023-04-10T14:59:54;20.50;39.80
2867;DHT22;1441;48.886;8.728;2023-04-10T15:02:20;20.60;40.10
2867;DHT22;1441;48.886;8.728;2023-04-10T15:04:45;20.30;39.00
2867;DHT22;1441;48.886;8.728;2023-04-10T15:07:12;19.90;39.50
2867;DHT22;1441;48.886;8.728;2023-04-10T15:09:38;19.90;39.70
2867;DHT22;1441;48.886;8.728;2023-04-10T15:12:05;20.00;40.10
2867;DHT22;1441;48.886;8.728;2023-04-10T15:14:31;20.20;40.50
2867;DHT22;1441;48.886;8.728;2023-04-10T15:16:56;20.10;43.10
2867;DHT22;1441;48.886;8.728;2023-04-10T15:19:22;20.00;40.30
2867;DHT22;1441;48.886;8.728;2023-04-10T15:21:47;20.20;39.10
2867;DHT22;1441;48.886;8.728;2023-04-10T15:24:13;20.20;38.60
2867;DHT22;1441;48.886;8.728;2023-04-10T15:26:42;20.20;40.40
2867;DHT22;1441;48.886;8.728;2023-04-10T15:29:09;20.10;39.60
2867;DHT22;1441;48.886;8.728;2023-04-10T15:31:34;20.10;38.90
2867;DHT22;1441;48.886;8.728;2023-04-10T15:34:00;20.30;38.10
2867;DHT22;1441;48.886;8.728;2023-04-10T15:36:26;20.10;38.20
2867;DHT22;1441;48.886;8.728;2023-04-10T15:38:53;20.10;38.60
2867;DHT22;1441;48.886;8.728;2023-04-10T15:41:19;19.90;38.40
2867;DHT22;1441;48.886;8.728;2023-04-10T15:43:44;19.90;38.70
2867;DHT22;1441;48.886;8.728;2023-04-10T15:46:10;19.70;38.90
2867;DHT22;1441;48.886;8.728;2023-04-10T15:48:36;19.70;39.40
2867;DHT22;1441;48.886;8.728;2023-04-10T15:51:05;19.80;39.70
2867;DHT22;1441;48.886;8.728;2023-04-10T15:53:31;19.90;39.20
2867;DHT22;1441;48.886;8.728;2023-04-10T15:55:57;20.00;39.10
2867;DHT22;1441;48.886;8.728;2023-04-10T15:58:22;19.80;38.80
2867;DHT22;1441;48.886;8.728;2023-04-10T16:00:48;19.60;39.40
2867;DHT22;1441;48.886;8.728;2023-04-10T16:03:13;19.60;39.90
2867;DHT22;1441;48.886;8.728;2023-04-10T16:05:39;19.60;41.10
2867;DHT22;1441;48.886;8.728;2023-04-10T16:08:05;19.40;42.40
2867;DHT22;1441;48.886;8.728;2023-04-10T16:10:30;19.40;42.30
2867;DHT22;1441;48.886;8.728;2023-04-10T16:12:56;19.40;41.20
2867;DHT22;1441;48.886;8.728;2023-04-10T16:15:27;19.40;40.90
2867;DHT22;1441;48.886;8.728;2023-04-10T16:17:52;19.20;41.30
2867;DHT22;1441;48.886;8.728;2023-04-10T16:20:18;19.20;41.50
2867;DHT22;1441;48.886;8.728;2023-04-10T16:22:44;19.20;41.90
2867;DHT22;1441;48.886;8.728;2023-04-10T16:25:09;19.20;42.40
2867;DHT22;1441;48.886;8.728;2023-04-10T16:27:35;19.20;42.50
2867;DHT22;1441;48.886;8.728;2023-04-10T16:30:00;19.20;43.40
2867;DHT22;1441;48.886;8.728;2023-04-10T16:32:26;19.00;45.10
2867;DHT22;1441;48.886;8.728;2023-04-10T16:34:51;18.80;45.50
2867;DHT22;1441;48.886;8.728;2023-04-10T16:37:17;18.80;47.80
2867;DHT22;1441;48.886;8.728;2023-04-10T16:39:43;18.80;47.70
2867;DHT22;1441;48.886;8.728;2023-04-10T16:42:08;19.00;46.30
2867;DHT22;1441;48.886;8.728;2023-04-10T16:44:34;19.10;48.00
2867;DHT22;1441;48.886;8.728;2023-04-10T16:47:00;18.80;47.60
2867;DHT22;1441;48.886;8.728;2023-04-10T16:49:25;18.60;47.10
2867;DHT22;1441;48.886;8.728;2023-04-10T16:51:51;18.60;46.80
2867;DHT22;1441;48.886;8.728;2023-04-10T16:54:16;18.50;46.30
2867;DHT22;1441;48.886;8.728;2023-04-10T16:56:42;18.30;47.30